METAR Data
IDs: Format: Raw Decoded Include TAF

Data at: 0625 UTC 01 Aug 2021

LIRA 010620Z 18010KT 9999 SCT050 30/20 Q1009